sensor_id;sensor_type;location;lat;lon;timestamp;temperature;humidity
19728;DHT22;10015;52.530;13.390;2022-07-10T05:32:45;15.70;99.90
19728;DHT22;10015;52.530;13.390;2022-07-10T05:35:13;15.80;99.90
19728;DHT22;10015;52.530;13.390;2022-07-10T05:37:39;15.90;99.90
19728;DHT22;10015;52.530;13.390;2022-07-10T05:40:05;16.00;99.90
19728;DHT22;10015;52.530;13.390;2022-07-10T05:42:32;16.10;99.90
19728;DHT22;10015;52.530;13.390;2022-07-10T05:44:59;16.10;99.90
19728;DHT22;10015;52.530;13.390;2022-07-10T05:47:27;16.10;99.90
19728;DHT22;10015;52.530;13.390;2022-07-10T05:49:53;16.00;99.90
19728;DHT22;10015;52.530;13.390;2022-07-10T05:52:18;15.90;99.90
19728;DHT22;10015;52.530;13.390;2022-07-10T05:54:44;15.90;99.90
19728;DHT22;10015;52.530;13.390;2022-07-10T05:57:10;15.90;99.90
19728;DHT22;10015;52.530;13.390;2022-07-10T05:59:37;15.80;99.90
19728;DHT22;10015;52.530;13.390;2022-07-10T06:02:03;15.70;99.90
19728;DHT22;10015;52.530;13.390;2022-07-10T06:04:29;15.80;99.90
19728;DHT22;10015;52.530;13.390;2022-07-10T06:06:55;15.80;99.90
19728;DHT22;10015;52.530;13.390;2022-07-10T06:09:21;15.90;99.90
19728;DHT22;10015;52.530;13.390;2022-07-10T06:11:46;15.90;99.90
19728;DHT22;10015;52.530;13.390;2022-07-10T06:14:14;16.00;99.90
19728;DHT22;10015;52.530;13.390;2022-07-10T06:16:40;16.00;99.90
19728;DHT22;10015;52.530;13.390;2022-07-10T06:19:06;16.10;99.90
19728;DHT22;10015;52.530;13.390;2022-07-10T06:21:33;16.00;99.90
19728;DHT22;10015;52.530;13.390;2022-07-10T06:23:59;16.00;99.90
19728;DHT22;10015;52.530;13.390;2022-07-10T06:26:25;16.00;99.90
19728;DHT22;10015;52.530;13.390;2022-07-10T06:28:51;16.00;99.90
19728;DHT22;10015;52.530;13.390;2022-07-10T06:31:17;16.00;99.90
19728;DHT22;10015;52.530;13.390;2022-07-10T06:33:43;16.00;99.90
19728;DHT22;10015;52.530;13.390;2022-07-10T06:36:09;16.00;99.90
19728;DHT22;10015;52.530;13.390;2022-07-10T06:38:35;16.00;99.90
19728;DHT22;10015;52.530;13.390;2022-07-10T06:41:01;16.00;99.90
19728;DHT22;10015;52.530;13.390;2022-07-10T06:43:27;16.20;99.90
19728;DHT22;10015;52.530;13.390;2022-07-10T06:45:53;16.20;99.90
19728;DHT22;10015;52.530;13.390;2022-07-10T06:48:19;16.30;99.90
19728;DHT22;10015;52.530;13.390;2022-07-10T06:50:46;16.20;99.90
19728;DHT22;10015;52.530;13.390;2022-07-10T06:53:12;16.20;99.90
19728;DHT22;10015;52.530;13.390;2022-07-10T06:55:38;16.20;99.90
19728;DHT22;10015;52.530;13.390;2022-07-10T06:58:04;16.10;99.90
19728;DHT22;10015;52.530;13.390;2022-07-10T07:00:30;16.80;99.90
19728;DHT22;10015;52.530;13.390;2022-07-10T07:02:56;17.50;99.90
19728;DHT22;10015;52.530;13.390;2022-07-10T07:05:22;18.00;99.90
19728;DHT22;10015;52.530;13.390;2022-07-10T07:07:47;18.40;99.90
19728;DHT22;10015;52.530;13.390;2022-07-10T07:10:13;18.70;99.90
19728;DHT22;10015;52.530;13.390;2022-07-10T07:12:39;18.90;99.90
19728;DHT22;10015;52.530;13.390;2022-07-10T07:15:06;19.10;99.90
19728;DHT22;10015;52.530;13.390;2022-07-10T07:17:32;18.80;99.90
19728;DHT22;10015;52.530;13.390;2022-07-10T07:20:12;18.50;99.90
19728;DHT22;10015;52.530;13.390;2022-07-10T07:22:57;18.30;99.90
19728;DHT22;10015;52.530;13.390;2022-07-10T07:25:35;18.20;99.90
19728;DHT22;10015;52.530;13.390;2022-07-10T07:28:02;17.90;99.90
19728;DHT22;10015;52.530;13.390;2022-07-10T07:30:28;17.60;99.90
19728;DHT22;10015;52.530;13.390;2022-07-10T07:32:54;17.50;99.90
19728;DHT22;10015;52.530;13.390;2022-07-10T07:35:21;17.30;99.90
19728;DHT22;10015;52.530;13.390;2022-07-10T07:37:48;17.20;99.90
19728;DHT22;10015;52.530;13.390;2022-07-10T07:40:16;17.20;99.90
19728;DHT22;10015;52.530;13.390;2022-07-10T07:42:45;17.30;99.90
19728;DHT22;10015;52.530;13.390;2022-07-10T07:45:11;17.20;99.90
19728;DHT22;10015;52.530;13.390;2022-07-10T07:50:15;17.20;99.90
19728;DHT22;10015;52.530;13.390;2022-07-10T07:52:41;17.30;99.90
19728;DHT22;10015;52.530;13.390;2022-07-10T07:55:08;17.30;99.90
19728;DHT22;10015;52.530;13.390;2022-07-10T07:57:35;17.50;99.90
19728;DHT22;10015;52.530;13.390;2022-07-10T08:00:01;17.70;99.90
19728;DHT22;10015;52.530;13.390;2022-07-10T08:02:37;17.60;99.90
19728;DHT22;10015;52.530;13.390;2022-07-10T08:05:04;17.60;99.90
19728;DHT22;10015;52.530;13.390;2022-07-10T08:07:37;17.60;99.90
19728;DHT22;10015;52.530;13.390;2022-07-10T08:10:05;17.60;99.90
19728;DHT22;10015;52.530;13.390;2022-07-10T08:12:31;17.80;99.90
19728;DHT22;10015;52.530;13.390;2022-07-10T08:14:57;18.20;99.90
19728;DHT22;10015;52.530;13.390;2022-07-10T08:17:24;18.70;99.90
19728;DHT22;10015;52.530;13.390;2022-07-10T08:19:50;19.10;99.90
19728;DHT22;10015;52.530;13.390;2022-07-10T08:22:16;19.20;99.90
19728;DHT22;10015;52.530;13.390;2022-07-10T08:24:42;19.40;99.90
19728;DHT22;10015;52.530;13.390;2022-07-10T08:27:08;19.50;99.90
19728;DHT22;10015;52.530;13.390;2022-07-10T08:29:34;19.60;99.90
19728;DHT22;10015;52.530;13.390;2022-07-10T08:32:00;19.40;99.90
19728;DHT22;10015;52.530;13.390;2022-07-10T08:34:26;19.50;99.90
19728;DHT22;10015;52.530;13.390;2022-07-10T08:36:53;19.30;99.90
19728;DHT22;10015;52.530;13.390;2022-07-10T08:39:19;19.10;99.90
19728;DHT22;10015;52.530;13.390;2022-07-10T08:41:48;18.90;99.90
19728;DHT22;10015;52.530;13.390;2022-07-10T08:44:16;18.80;99.90
19728;DHT22;10015;52.530;13.390;2022-07-10T08:46:46;18.70;99.90
19728;DHT22;10015;52.530;13.390;2022-07-10T08:49:12;18.60;99.90
19728;DHT22;10015;52.530;13.390;2022-07-10T08:54:20;18.40;99.90
19728;DHT22;10015;52.530;13.390;2022-07-10T08:56:47;18.50;99.90
19728;DHT22;10015;52.530;13.390;2022-07-10T08:59:14;18.70;99.90
19728;DHT22;10015;52.530;13.390;2022-07-10T09:01:40;18.70;99.90
19728;DHT22;10015;52.530;13.390;2022-07-10T09:04:06;18.70;99.90
19728;DHT22;10015;52.530;13.390;2022-07-10T09:06:32;18.80;99.90
19728;DHT22;10015;52.530;13.390;2022-07-10T09:09:03;18.90;99.90
19728;DHT22;10015;52.530;13.390;2022-07-10T09:11:30;18.60;99.90
19728;DHT22;10015;52.530;13.390;2022-07-10T09:13:59;18.40;99.90
19728;DHT22;10015;52.530;13.390;2022-07-10T09:16:35;18.30;99.90
19728;DHT22;10015;52.530;13.390;2022-07-10T09:19:21;18.20;99.90
19728;DHT22;10015;52.530;13.390;2022-07-10T09:21:49;18.10;99.90
19728;DHT22;10015;52.530;13.390;2022-07-10T09:24:16;18.30;99.90
19728;DHT22;10015;52.530;13.390;2022-07-10T09:27:04;18.30;99.90
19728;DHT22;10015;52.530;13.390;2022-07-10T09:29:31;18.30;99.90
19728;DHT22;10015;52.530;13.390;2022-07-10T09:32:02;18.30;99.90
19728;DHT22;10015;52.530;13.390;2022-07-10T09:34:35;18.50;99.90
19728;DHT22;10015;52.530;13.390;2022-07-10T09:37:22;18.60;99.90
19728;DHT22;10015;52.530;13.390;2022-07-10T09:40:05;18.70;99.90
19728;DHT22;10015;52.530;13.390;2022-07-10T09:42:33;18.70;99.90
19728;DHT22;10015;52.530;13.390;2022-07-10T09:47:39;18.70;99.90
19728;DHT22;10015;52.530;13.390;2022-07-10T09:52:59;18.60;99.90
19728;DHT22;10015;52.530;13.390;2022-07-10T09:55:27;18.50;99.90
19728;DHT22;10015;52.530;13.390;2022-07-10T10:00:30;18.70;99.90
19728;DHT22;10015;52.530;13.390;2022-07-10T10:02:58;18.70;99.90
19728;DHT22;10015;52.530;13.390;2022-07-10T10:05:48;18.70;99.90
19728;DHT22;10015;52.530;13.390;2022-07-10T10:08:37;18.90;99.90
19728;DHT22;10015;52.530;13.390;2022-07-10T10:11:07;18.70;99.90
19728;DHT22;10015;52.530;13.390;2022-07-10T10:13:37;18.70;99.90
19728;DHT22;10015;52.530;13.390;2022-07-10T10:16:04;18.80;99.90
19728;DHT22;10015;52.530;13.390;2022-07-10T10:18:34;18.70;99.90
19728;DHT22;10015;52.530;13.390;2022-07-10T10:21:02;18.80;99.90
19728;DHT22;10015;52.530;13.390;2022-07-10T10:23:32;18.90;99.90
19728;DHT22;10015;52.530;13.390;2022-07-10T10:26:20;18.90;99.90
19728;DHT22;10015;52.530;13.390;2022-07-10T10:32:44;19.00;99.90
19728;DHT22;10015;52.530;13.390;2022-07-10T10:35:43;18.90;99.90
19728;DHT22;10015;52.530;13.390;2022-07-10T10:38:13;18.90;99.90
19728;DHT22;10015;52.530;13.390;2022-07-10T10:40:39;18.80;99.90
19728;DHT22;10015;52.530;13.390;2022-07-10T10:43:16;18.90;99.90
19728;DHT22;10015;52.530;13.390;2022-07-10T10:45:48;18.80;99.90
19728;DHT22;10015;52.530;13.390;2022-07-10T10:48:15;18.80;99.90
19728;DHT22;10015;52.530;13.390;2022-07-10T10:51:11;18.90;99.90
19728;DHT22;10015;52.530;13.390;2022-07-10T10:53:37;19.00;99.90
19728;DHT22;10015;52.530;13.390;2022-07-10T10:58:43;19.20;99.90
19728;DHT22;10015;52.530;13.390;2022-07-10T11:06:45;19.10;99.90
19728;DHT22;10015;52.530;13.390;2022-07-10T11:12:00;19.20;99.90
19728;DHT22;10015;52.530;13.390;2022-07-10T11:14:28;19.20;99.90
19728;DHT22;10015;52.530;13.390;2022-07-10T11:16:58;19.10;99.90
19728;DHT22;10015;52.530;13.390;2022-07-10T11:19:28;19.10;99.90
19728;DHT22;10015;52.530;13.390;2022-07-10T11:27:42;19.00;99.90
19728;DHT22;10015;52.530;13.390;2022-07-10T11:30:16;19.10;99.90
19728;DHT22;10015;52.530;13.390;2022-07-10T11:32:42;19.10;99.90
19728;DHT22;10015;52.530;13.390;2022-07-10T11:35:12;19.10;99.90
19728;DHT22;10015;52.530;13.390;2022-07-10T11:37:51;19.10;99.90
19728;DHT22;10015;52.530;13.390;2022-07-10T11:40:19;19.30;99.90
19728;DHT22;10015;52.530;13.390;2022-07-10T11:42:53;19.60;99.90
19728;DHT22;10015;52.530;13.390;2022-07-10T11:45:26;19.80;99.90
19728;DHT22;10015;52.530;13.390;2022-07-10T11:47:53;19.80;99.90
19728;DHT22;10015;52.530;13.390;2022-07-10T11:50:19;19.80;99.90
19728;DHT22;10015;52.530;13.390;2022-07-10T11:52:46;20.00;99.90
19728;DHT22;10015;52.530;13.390;2022-07-10T11:55:21;20.20;99.90
19728;DHT22;10015;52.530;13.390;2022-07-10T11:57:48;20.30;99.90
19728;DHT22;10015;52.530;13.390;2022-07-10T12:00:21;20.40;99.90
19728;DHT22;10015;52.530;13.390;2022-07-10T12:02:50;20.30;99.90
19728;DHT22;10015;52.530;13.390;2022-07-10T12:07:56;20.00;99.90
19728;DHT22;10015;52.530;13.390;2022-07-10T12:10:26;19.90;99.90
19728;DHT22;10015;52.530;13.390;2022-07-10T12:12:52;19.80;99.90
19728;DHT22;10015;52.530;13.390;2022-07-10T12:18:06;19.80;99.90
19728;DHT22;10015;52.530;13.390;2022-07-10T12:20:32;20.00;99.90
19728;DHT22;10015;52.530;13.390;2022-07-10T12:22:59;20.10;99.90
19728;DHT22;10015;52.530;13.390;2022-07-10T12:25:26;20.20;99.90
19728;DHT22;10015;52.530;13.390;2022-07-10T12:27:56;20.30;99.90
19728;DHT22;10015;52.530;13.390;2022-07-10T12:30:43;20.30;99.90
19728;DHT22;10015;52.530;13.390;2022-07-10T12:33:12;20.20;99.90
19728;DHT22;10015;52.530;13.390;2022-07-10T12:38:23;20.00;99.90
19728;DHT22;10015;52.530;13.390;2022-07-10T12:40:50;19.70;99.90
19728;DHT22;10015;52.530;13.390;2022-07-10T12:43:29;19.80;99.90
19728;DHT22;10015;52.530;13.390;2022-07-10T12:46:14;19.80;99.90
19728;DHT22;10015;52.530;13.390;2022-07-10T12:48:43;19.70;99.90
19728;DHT22;10015;52.530;13.390;2022-07-10T12:51:24;19.80;99.90
19728;DHT22;10015;52.530;13.390;2022-07-10T12:53:51;19.80;99.90
19728;DHT22;10015;52.530;13.390;2022-07-10T12:56:34;19.90;99.90
19728;DHT22;10015;52.530;13.390;2022-07-10T12:59:03;19.90;99.90
19728;DHT22;10015;52.530;13.390;2022-07-10T13:01:43;19.90;99.90
19728;DHT22;10015;52.530;13.390;2022-07-10T13:04:09;20.00;99.90
19728;DHT22;10015;52.530;13.390;2022-07-10T13:06:37;20.10;99.90
19728;DHT22;10015;52.530;13.390;2022-07-10T13:09:24;20.30;99.90
19728;DHT22;10015;52.530;13.390;2022-07-10T13:11:53;20.40;99.90
19728;DHT22;10015;52.530;13.390;2022-07-10T13:14:20;20.50;99.90
19728;DHT22;10015;52.530;13.390;2022-07-10T13:16:46;20.40;99.90
19728;DHT22;10015;52.530;13.390;2022-07-10T13:19:13;20.40;99.90
19728;DHT22;10015;52.530;13.390;2022-07-10T13:21:39;20.30;99.90
19728;DHT22;10015;52.530;13.390;2022-07-10T13:24:06;20.20;99.90
19728;DHT22;10015;52.530;13.390;2022-07-10T13:26:32;20.10;99.90
19728;DHT22;10015;52.530;13.390;2022-07-10T13:28:58;20.10;99.90
19728;DHT22;10015;52.530;13.390;2022-07-10T13:31:25;20.20;99.90
19728;DHT22;10015;52.530;13.390;2022-07-10T13:33:51;20.20;99.90
19728;DHT22;10015;52.530;13.390;2022-07-10T13:36:17;20.30;99.90
19728;DHT22;10015;52.530;13.390;2022-07-10T13:38:44;20.40;99.90
19728;DHT22;10015;52.530;13.390;2022-07-10T13:41:12;20.50;99.90
19728;DHT22;10015;52.530;13.390;2022-07-10T13:43:38;20.40;99.90
19728;DHT22;10015;52.530;13.390;2022-07-10T13:46:04;20.30;99.90
19728;DHT22;10015;52.530;13.390;2022-07-10T13:48:30;20.20;99.90
19728;DHT22;10015;52.530;13.390;2022-07-10T13:50:56;20.20;99.90
19728;DHT22;10015;52.530;13.390;2022-07-10T13:53:23;20.20;99.90
19728;DHT22;10015;52.530;13.390;2022-07-10T13:55:49;20.20;99.90
19728;DHT22;10015;52.530;13.390;2022-07-10T13:58:15;20.10;99.90
19728;DHT22;10015;52.530;13.390;2022-07-10T14:00:41;20.10;99.90
19728;DHT22;10015;52.530;13.390;2022-07-10T14:03:07;20.10;99.90
19728;DHT22;10015;52.530;13.390;2022-07-10T14:05:34;20.30;99.90
19728;DHT22;10015;52.530;13.390;2022-07-10T14:08:01;20.40;99.90
19728;DHT22;10015;52.530;13.390;2022-07-10T14:10:27;20.40;99.90
19728;DHT22;10015;52.530;13.390;2022-07-10T14:12:54;20.40;99.90
19728;DHT22;10015;52.530;13.390;2022-07-10T14:15:20;20.60;99.90
19728;DHT22;10015;52.530;13.390;2022-07-10T14:17:47;20.60;99.90
19728;DHT22;10015;52.530;13.390;2022-07-10T14:20:14;20.70;99.90
19728;DHT22;10015;52.530;13.390;2022-07-10T14:22:40;20.70;99.90
19728;DHT22;10015;52.530;13.390;2022-07-10T14:25:06;20.80;99.90
19728;DHT22;10015;52.530;13.390;2022-07-10T14:27:34;20.90;99.90
19728;DHT22;10015;52.530;13.390;2022-07-10T14:30:00;21.00;99.90
19728;DHT22;10015;52.530;13.390;2022-07-10T14:32:26;21.00;99.90
19728;DHT22;10015;52.530;13.390;2022-07-10T14:34:52;21.10;99.90
19728;DHT22;10015;52.530;13.390;2022-07-10T14:37:18;21.10;99.90
19728;DHT22;10015;52.530;13.390;2022-07-10T14:39:44;21.10;99.90
19728;DHT22;10015;52.530;13.390;2022-07-10T14:42:11;21.10;99.90
19728;DHT22;10015;52.530;13.390;2022-07-10T14:44:38;20.90;99.90
19728;DHT22;10015;52.530;13.390;2022-07-10T14:47:04;20.70;99.90
19728;DHT22;10015;52.530;13.390;2022-07-10T14:49:30;20.70;99.90
19728;DHT22;10015;52.530;13.390;2022-07-10T14:51:56;20.60;99.90
19728;DHT22;10015;52.530;13.390;2022-07-10T14:54:23;20.80;99.90
19728;DHT22;10015;52.530;13.390;2022-07-10T14:56:51;21.00;99.90
19728;DHT22;10015;52.530;13.390;2022-07-10T14:59:26;21.10;99.90
19728;DHT22;10015;52.530;13.390;2022-07-10T15:02:00;21.10;99.90
19728;DHT22;10015;52.530;13.390;2022-07-10T15:04:26;21.20;99.90
19728;DHT22;10015;52.530;13.390;2022-07-10T15:07:03;21.30;99.90
19728;DHT22;10015;52.530;13.390;2022-07-10T15:09:53;21.30;99.90
19728;DHT22;10015;52.530;13.390;2022-07-10T15:12:18;21.30;99.90
19728;DHT22;10015;52.530;13.390;2022-07-10T15:14:46;21.50;99.90
19728;DHT22;10015;52.530;13.390;2022-07-10T15:17:12;21.60;99.90
19728;DHT22;10015;52.530;13.390;2022-07-10T15:19:38;21.60;99.90
19728;DHT22;10015;52.530;13.390;2022-07-10T15:22:04;21.50;99.90
19728;DHT22;10015;52.530;13.390;2022-07-10T15:24:30;21.60;99.90
19728;DHT22;10015;52.530;13.390;2022-07-10T15:26:57;21.60;99.90
19728;DHT22;10015;52.530;13.390;2022-07-10T15:29:23;21.70;99.90
19728;DHT22;10015;52.530;13.390;2022-07-10T15:31:51;21.70;99.90
19728;DHT22;10015;52.530;13.390;2022-07-10T15:34:18;21.60;99.90
19728;DHT22;10015;52.530;13.390;2022-07-10T15:36:44;21.70;99.90
19728;DHT22;10015;52.530;13.390;2022-07-10T15:39:14;21.60;99.90
19728;DHT22;10015;52.530;13.390;2022-07-10T15:41:41;21.60;99.90
19728;DHT22;10015;52.530;13.390;2022-07-10T15:44:12;21.60;99.90
19728;DHT22;10015;52.530;13.390;2022-07-10T15:46:38;21.50;99.90
19728;DHT22;10015;52.530;13.390;2022-07-10T15:49:04;21.50;99.90
19728;DHT22;10015;52.530;13.390;2022-07-10T15:51:31;21.50;99.90
19728;DHT22;10015;52.530;13.390;2022-07-10T15:53:57;21.50;99.90
19728;DHT22;10015;52.530;13.390;2022-07-10T15:56:24;21.50;99.90
19728;DHT22;10015;52.530;13.390;2022-07-10T15:58:50;21.30;99.90
19728;DHT22;10015;52.530;13.390;2022-07-10T16:01:15;21.30;99.90
19728;DHT22;10015;52.530;13.390;2022-07-10T16:03:42;21.20;99.90
19728;DHT22;10015;52.530;13.390;2022-07-10T16:06:14;21.20;99.90
19728;DHT22;10015;52.530;13.390;2022-07-10T16:08:40;21.30;99.90
19728;DHT22;10015;52.530;13.390;2022-07-10T16:11:06;21.20;99.90
19728;DHT22;10015;52.530;13.390;2022-07-10T16:13:33;21.20;99.90
19728;DHT22;10015;52.530;13.390;2022-07-10T16:15:59;21.20;99.90
19728;DHT22;10015;52.530;13.390;2022-07-10T16:18:26;21.30;99.90
19728;DHT22;10015;52.530;13.390;2022-07-10T16:20:52;21.20;99.90
19728;DHT22;10015;52.530;13.390;2022-07-10T16:23:18;21.00;99.90
19728;DHT22;10015;52.530;13.390;2022-07-10T16:25:44;20.90;99.90
19728;DHT22;10015;52.530;13.390;2022-07-10T16:28:29;20.70;99.90
19728;DHT22;10015;52.530;13.390;2022-07-10T16:30:56;20.60;99.90
19728;DHT22;10015;52.530;13.390;2022-07-10T16:33:23;20.60;99.90
19728;DHT22;10015;52.530;13.390;2022-07-10T16:35:49;20.40;99.90
19728;DHT22;10015;52.530;13.390;2022-07-10T16:38:16;20.30;99.90
19728;DHT22;10015;52.530;13.390;2022-07-10T16:40:43;20.20;99.90
19728;DHT22;10015;52.530;13.390;2022-07-10T16:43:09;20.20;99.90
19728;DHT22;10015;52.530;13.390;2022-07-10T16:45:40;20.10;99.90
19728;DHT22;10015;52.530;13.390;2022-07-10T16:48:07;20.10;99.90
19728;DHT22;10015;52.530;13.390;2022-07-10T16:50:33;20.10;99.90
19728;DHT22;10015;52.530;13.390;2022-07-10T16:53:00;20.20;99.90
19728;DHT22;10015;52.530;13.390;2022-07-10T16:55:27;20.30;99.90
19728;DHT22;10015;52.530;13.390;2022-07-10T16:57:53;20.40;99.90
19728;DHT22;10015;52.530;13.390;2022-07-10T17:00:19;20.50;99.90
19728;DHT22;10015;52.530;13.390;2022-07-10T17:02:45;20.60;99.90
19728;DHT22;10015;52.530;13.390;2022-07-10T17:05:11;20.50;99.90
19728;DHT22;10015;52.530;13.390;2022-07-10T17:07:41;20.40;99.90
19728;DHT22;10015;52.530;13.390;2022-07-10T17:10:09;20.40;99.90
19728;DHT22;10015;52.530;13.390;2022-07-10T17:12:36;20.30;99.90
19728;DHT22;10015;52.530;13.390;2022-07-10T17:15:03;20.30;99.90
19728;DHT22;10015;52.530;13.390;2022-07-10T17:17:29;20.20;99.90
19728;DHT22;10015;52.530;13.390;2022-07-10T17:19:55;20.10;99.90
19728;DHT22;10015;52.530;13.390;2022-07-10T17:22:22;20.00;99.90
19728;DHT22;10015;52.530;13.390;2022-07-10T17:24:49;20.10;99.90
19728;DHT22;10015;52.530;13.390;2022-07-10T17:27:16;20.10;99.90
19728;DHT22;10015;52.530;13.390;2022-07-10T17:29:43;20.10;99.90
19728;DHT22;10015;52.530;13.390;2022-07-10T17:32:09;20.00;99.90
19728;DHT22;10015;52.530;13.390;2022-07-10T17:34:35;20.00;99.90
19728;DHT22;10015;52.530;13.390;2022-07-10T17:37:01;19.90;99.90
19728;DHT22;10015;52.530;13.390;2022-07-10T17:39:28;19.90;99.90
19728;DHT22;10015;52.530;13.390;2022-07-10T17:41:54;19.90;99.90
19728;DHT22;10015;52.530;13.390;2022-07-10T17:44:24;19.80;99.90
19728;DHT22;10015;52.530;13.390;2022-07-10T17:46:54;19.80;99.90
19728;DHT22;10015;52.530;13.390;2022-07-10T17:49:20;19.80;99.90
19728;DHT22;10015;52.530;13.390;2022-07-10T17:51:46;19.80;99.90
19728;DHT22;10015;52.530;13.390;2022-07-10T17:54:12;19.70;99.90
19728;DHT22;10015;52.530;13.390;2022-07-10T17:56:38;19.60;99.90
19728;DHT22;10015;52.530;13.390;2022-07-10T17:59:04;19.60;99.90
19728;DHT22;10015;52.530;13.390;2022-07-10T18:01:30;19.60;99.90
19728;DHT22;10015;52.530;13.390;2022-07-10T18:03:56;19.60;99.90
19728;DHT22;10015;52.530;13.390;2022-07-10T18:06:23;19.60;99.90
19728;DHT22;10015;52.530;13.390;2022-07-10T18:08:49;19.70;99.90
19728;DHT22;10015;52.530;13.390;2022-07-10T18:11:16;19.60;99.90
19728;DHT22;10015;52.530;13.390;2022-07-10T18:13:47;19.60;99.90
19728;DHT22;10015;52.530;13.390;2022-07-10T18:16:13;19.50;99.90
19728;DHT22;10015;52.530;13.390;2022-07-10T18:18:48;19.50;99.90
19728;DHT22;10015;52.530;13.390;2022-07-10T18:21:14;19.50;99.90
19728;DHT22;10015;52.530;13.390;2022-07-10T18:23:41;19.50;99.90
19728;DHT22;10015;52.530;13.390;2022-07-10T18:26:09;19.50;99.90
19728;DHT22;10015;52.530;13.390;2022-07-10T18:28:36;19.50;99.90
19728;DHT22;10015;52.530;13.390;2022-07-10T18:31:02;19.50;99.90
19728;DHT22;10015;52.530;13.390;2022-07-10T18:33:28;19.50;99.90
19728;DHT22;10015;52.530;13.390;2022-07-10T18:36:13;19.50;99.90
19728;DHT22;10015;52.530;13.390;2022-07-10T18:38:39;19.50;99.90
19728;DHT22;10015;52.530;13.390;2022-07-10T18:41:05;19.50;99.90
19728;DHT22;10015;52.530;13.390;2022-07-10T18:43:32;19.50;99.90
19728;DHT22;10015;52.530;13.390;2022-07-10T18:45:59;19.40;99.90
19728;DHT22;10015;52.530;13.390;2022-07-10T18:48:26;19.30;99.90
19728;DHT22;10015;52.530;13.390;2022-07-10T18:50:52;19.30;99.90
19728;DHT22;10015;52.530;13.390;2022-07-10T18:53:19;19.30;99.90
19728;DHT22;10015;52.530;13.390;2022-07-10T18:55:45;19.30;99.90
19728;DHT22;10015;52.530;13.390;2022-07-10T18:58:11;19.40;99.90
19728;DHT22;10015;52.530;13.390;2022-07-10T19:00:38;19.30;99.90
19728;DHT22;10015;52.530;13.390;2022-07-10T19:03:05;19.40;99.90
19728;DHT22;10015;52.530;13.390;2022-07-10T19:05:31;19.30;99.90
19728;DHT22;10015;52.530;13.390;2022-07-10T19:07:57;19.40;99.90
19728;DHT22;10015;52.530;13.390;2022-07-10T19:10:24;19.30;99.90
19728;DHT22;10015;52.530;13.390;2022-07-10T19:12:50;19.30;99.90
19728;DHT22;10015;52.530;13.390;2022-07-10T19:15:16;19.30;99.90
19728;DHT22;10015;52.530;13.390;2022-07-10T19:17:42;19.30;99.90
19728;DHT22;10015;52.530;13.390;2022-07-10T19:20:13;19.30;99.90
19728;DHT22;10015;52.530;13.390;2022-07-10T19:22:42;19.20;99.90
19728;DHT22;10015;52.530;13.390;2022-07-10T19:25:08;19.30;99.90
19728;DHT22;10015;52.530;13.390;2022-07-10T19:27:37;19.20;99.90
19728;DHT22;10015;52.530;13.390;2022-07-10T19:30:04;19.20;99.90
19728;DHT22;10015;52.530;13.390;2022-07-10T19:32:31;19.20;99.90
19728;DHT22;10015;52.530;13.390;2022-07-10T19:34:58;19.20;99.90
19728;DHT22;10015;52.530;13.390;2022-07-10T19:37:24;19.10;99.90
19728;DHT22;10015;52.530;13.390;2022-07-10T19:39:49;19.10;99.90
19728;DHT22;10015;52.530;13.390;2022-07-10T19:42:15;19.10;99.90
19728;DHT22;10015;52.530;13.390;2022-07-10T19:44:41;19.10;99.90
19728;DHT22;10015;52.530;13.390;2022-07-10T19:47:08;19.10;99.90
19728;DHT22;10015;52.530;13.390;2022-07-10T19:49:34;19.00;99.90
19728;DHT22;10015;52.530;13.390;2022-07-10T19:52:00;19.00;99.90
19728;DHT22;10015;52.530;13.390;2022-07-10T19:54:26;18.90;99.90
19728;DHT22;10015;52.530;13.390;2022-07-10T19:56:52;19.00;99.90
19728;DHT22;10015;52.530;13.390;2022-07-10T19:59:18;19.00;99.90
19728;DHT22;10015;52.530;13.390;2022-07-10T20:01:45;19.00;99.90
19728;DHT22;10015;52.530;13.390;2022-07-10T20:04:11;19.00;99.90
19728;DHT22;10015;52.530;13.390;2022-07-10T20:06:38;19.00;99.90
19728;DHT22;10015;52.530;13.390;2022-07-10T20:09:04;19.00;99.90
19728;DHT22;10015;52.530;13.390;2022-07-10T20:11:34;19.00;99.90
19728;DHT22;10015;52.530;13.390;2022-07-10T20:14:00;18.90;99.90
19728;DHT22;10015;52.530;13.390;2022-07-10T20:16:27;18.90;99.90
19728;DHT22;10015;52.530;13.390;2022-07-10T20:18:53;18.90;99.90
19728;DHT22;10015;52.530;13.390;2022-07-10T20:21:19;18.90;99.90
19728;DHT22;10015;52.530;13.390;2022-07-10T20:23:45;18.80;99.90
19728;DHT22;10015;52.530;13.390;2022-07-10T20:26:11;18.80;99.90
19728;DHT22;10015;52.530;13.390;2022-07-10T20:28:37;18.80;99.90
19728;DHT22;10015;52.530;13.390;2022-07-10T20:31:03;18.70;99.90
19728;DHT22;10015;52.530;13.390;2022-07-10T20:33:29;18.60;99.90
19728;DHT22;10015;52.530;13.390;2022-07-10T20:35:56;18.60;99.90
19728;DHT22;10015;52.530;13.390;2022-07-10T20:38:41;18.60;99.90
19728;DHT22;10015;52.530;13.390;2022-07-10T20:41:08;18.60;99.90
19728;DHT22;10015;52.530;13.390;2022-07-10T20:43:34;18.60;99.90
19728;DHT22;10015;52.530;13.390;2022-07-10T20:46:00;18.60;99.90
19728;DHT22;10015;52.530;13.390;2022-07-10T20:48:27;18.60;99.90
19728;DHT22;10015;52.530;13.390;2022-07-10T20:50:54;18.50;99.90
19728;DHT22;10015;52.530;13.390;2022-07-10T20:53:20;18.50;99.90
19728;DHT22;10015;52.530;13.390;2022-07-10T20:55:46;18.50;99.90
19728;DHT22;10015;52.530;13.390;2022-07-10T20:58:12;18.50;99.90
19728;DHT22;10015;52.530;13.390;2022-07-10T21:00:38;18.50;99.90
19728;DHT22;10015;52.530;13.390;2022-07-10T21:03:04;18.50;99.90
19728;DHT22;10015;52.530;13.390;2022-07-10T21:05:30;18.50;99.90
19728;DHT22;10015;52.530;13.390;2022-07-10T21:08:02;18.50;99.90
19728;DHT22;10015;52.530;13.390;2022-07-10T21:10:29;18.40;99.90
19728;DHT22;10015;52.530;13.390;2022-07-10T21:13:15;18.40;99.90
19728;DHT22;10015;52.530;13.390;2022-07-10T21:15:42;18.50;99.90
19728;DHT22;10015;52.530;13.390;2022-07-10T21:18:09;18.40;99.90
19728;DHT22;10015;52.530;13.390;2022-07-10T21:20:35;18.40;99.90
19728;DHT22;10015;52.530;13.390;2022-07-10T21:23:01;18.30;99.90
19728;DHT22;10015;52.530;13.390;2022-07-10T21:25:28;18.30;99.90
19728;DHT22;10015;52.530;13.390;2022-07-10T21:27:54;18.30;99.90
19728;DHT22;10015;52.530;13.390;2022-07-10T21:30:21;18.20;99.90
19728;DHT22;10015;52.530;13.390;2022-07-10T21:32:47;18.10;99.90
19728;DHT22;10015;52.530;13.390;2022-07-10T21:35:14;18.10;99.90